sensor_id;sensor_type;location;lat;lon;timestamp;temperature;humidity
34574;DHT22;20809;49.594;8.734;2022-11-03T00:01:36;5.20;99.90
34574;DHT22;20809;49.594;8.734;2022-11-03T00:04:37;5.30;99.90
34574;DHT22;20809;49.594;8.734;2022-11-03T00:07:38;5.40;99.90
34574;DHT22;20809;49.594;8.734;2022-11-03T00:10:39;5.40;99.90
34574;DHT22;20809;49.594;8.734;2022-11-03T00:13:42;5.40;99.90
34574;DHT22;20809;49.594;8.734;2022-11-03T00:16:43;5.40;99.90
34574;DHT22;20809;49.594;8.734;2022-11-03T00:19:44;5.30;99.90
34574;DHT22;20809;49.594;8.734;2022-11-03T00:22:44;5.30;99.90
34574;DHT22;20809;49.594;8.734;2022-11-03T00:25:45;5.30;99.90
34574;DHT22;20809;49.594;8.734;2022-11-03T00:28:49;5.20;99.90
34574;DHT22;20809;49.594;8.734;2022-11-03T00:31:49;5.20;99.90
34574;DHT22;20809;49.594;8.734;2022-11-03T00:34:50;5.20;99.90
34574;DHT22;20809;49.594;8.734;2022-11-03T00:37:51;5.20;99.90
34574;DHT22;20809;49.594;8.734;2022-11-03T00:40:53;5.10;99.90
34574;DHT22;20809;49.594;8.734;2022-11-03T00:43:54;5.10;99.90
34574;DHT22;20809;49.594;8.734;2022-11-03T00:46:55;5.00;99.90
34574;DHT22;20809;49.594;8.734;2022-11-03T00:49:56;4.90;99.90
34574;DHT22;20809;49.594;8.734;2022-11-03T00:52:56;4.90;99.90
34574;DHT22;20809;49.594;8.734;2022-11-03T00:55:57;4.90;99.90
34574;DHT22;20809;49.594;8.734;2022-11-03T00:58:59;5.00;99.90
34574;DHT22;20809;49.594;8.734;2022-11-03T01:02:00;5.00;99.90
34574;DHT22;20809;49.594;8.734;2022-11-03T01:05:00;5.00;99.90
34574;DHT22;20809;49.594;8.734;2022-11-03T01:08:20;5.00;99.90
34574;DHT22;20809;49.594;8.734;2022-11-03T01:11:22;4.80;99.90
34574;DHT22;20809;49.594;8.734;2022-11-03T01:14:43;4.80;99.90
34574;DHT22;20809;49.594;8.734;2022-11-03T01:17:44;4.70;99.90
34574;DHT22;20809;49.594;8.734;2022-11-03T01:20:44;4.80;99.90
34574;DHT22;20809;49.594;8.734;2022-11-03T01:23:45;4.90;99.90
34574;DHT22;20809;49.594;8.734;2022-11-03T01:26:46;5.00;99.90
34574;DHT22;20809;49.594;8.734;2022-11-03T01:29:47;5.00;99.90
34574;DHT22;20809;49.594;8.734;2022-11-03T01:32:47;4.90;99.90
34574;DHT22;20809;49.594;8.734;2022-11-03T01:35:52;4.90;99.90
34574;DHT22;20809;49.594;8.734;2022-11-03T01:38:53;4.90;99.90
34574;DHT22;20809;49.594;8.734;2022-11-03T01:41:55;4.90;99.90
34574;DHT22;20809;49.594;8.734;2022-11-03T01:44:56;4.80;99.90
34574;DHT22;20809;49.594;8.734;2022-11-03T01:47:56;4.80;99.90
34574;DHT22;20809;49.594;8.734;2022-11-03T01:50:58;4.80;99.90
34574;DHT22;20809;49.594;8.734;2022-11-03T01:54:03;4.80;99.90
34574;DHT22;20809;49.594;8.734;2022-11-03T01:59:05;4.80;99.90
34574;DHT22;20809;49.594;8.734;2022-11-03T02:02:06;4.80;99.90
34574;DHT22;20809;49.594;8.734;2022-11-03T02:05:07;4.90;99.90
34574;DHT22;20809;49.594;8.734;2022-11-03T02:08:20;5.00;99.90
34574;DHT22;20809;49.594;8.734;2022-11-03T02:11:21;4.90;99.90
34574;DHT22;20809;49.594;8.734;2022-11-03T02:15:05;4.90;99.90
34574;DHT22;20809;49.594;8.734;2022-11-03T02:18:08;5.00;99.90
34574;DHT22;20809;49.594;8.734;2022-11-03T02:21:38;4.90;99.90
34574;DHT22;20809;49.594;8.734;2022-11-03T02:28:07;4.70;99.90
34574;DHT22;20809;49.594;8.734;2022-11-03T02:31:40;4.60;99.90
34574;DHT22;20809;49.594;8.734;2022-11-03T02:35:04;4.50;99.90
34574;DHT22;20809;49.594;8.734;2022-11-03T02:38:08;4.50;99.90
34574;DHT22;20809;49.594;8.734;2022-11-03T02:41:11;4.70;99.90
34574;DHT22;20809;49.594;8.734;2022-11-03T02:44:18;4.90;99.90
34574;DHT22;20809;49.594;8.734;2022-11-03T02:47:20;4.90;99.90
34574;DHT22;20809;49.594;8.734;2022-11-03T02:50:26;5.00;99.90
34574;DHT22;20809;49.594;8.734;2022-11-03T02:53:28;4.90;99.90
34574;DHT22;20809;49.594;8.734;2022-11-03T02:56:30;4.90;99.90
34574;DHT22;20809;49.594;8.734;2022-11-03T03:00:06;5.00;99.90
34574;DHT22;20809;49.594;8.734;2022-11-03T03:03:10;4.90;99.90
34574;DHT22;20809;49.594;8.734;2022-11-03T03:06:22;5.00;99.90
34574;DHT22;20809;49.594;8.734;2022-11-03T03:09:28;5.00;99.90
34574;DHT22;20809;49.594;8.734;2022-11-03T03:12:31;5.10;99.90
34574;DHT22;20809;49.594;8.734;2022-11-03T03:15:40;5.10;99.90
34574;DHT22;20809;49.594;8.734;2022-11-03T03:19:16;5.00;99.90
34574;DHT22;20809;49.594;8.734;2022-11-03T03:28:45;4.10;99.90
34574;DHT22;20809;49.594;8.734;2022-11-03T03:31:58;4.10;99.90
34574;DHT22;20809;49.594;8.734;2022-11-03T03:35:02;4.10;99.90
34574;DHT22;20809;49.594;8.734;2022-11-03T03:38:08;4.20;99.90
34574;DHT22;20809;49.594;8.734;2022-11-03T03:41:12;4.30;99.90
34574;DHT22;20809;49.594;8.734;2022-11-03T03:44:21;4.30;99.90
34574;DHT22;20809;49.594;8.734;2022-11-03T03:47:28;4.30;99.90
34574;DHT22;20809;49.594;8.734;2022-11-03T03:50:32;4.30;99.90
34574;DHT22;20809;49.594;8.734;2022-11-03T03:53:33;4.20;99.90
34574;DHT22;20809;49.594;8.734;2022-11-03T03:56:42;4.20;99.90
34574;DHT22;20809;49.594;8.734;2022-11-03T03:59:45;4.20;99.90
34574;DHT22;20809;49.594;8.734;2022-11-03T04:02:46;4.40;99.90
34574;DHT22;20809;49.594;8.734;2022-11-03T04:05:47;4.40;99.90
34574;DHT22;20809;49.594;8.734;2022-11-03T04:08:48;4.50;99.90
34574;DHT22;20809;49.594;8.734;2022-11-03T04:11:48;4.50;99.90
34574;DHT22;20809;49.594;8.734;2022-11-03T04:15:11;4.50;99.90
34574;DHT22;20809;49.594;8.734;2022-11-03T04:18:31;4.50;99.90
34574;DHT22;20809;49.594;8.734;2022-11-03T04:21:50;4.60;99.90
34574;DHT22;20809;49.594;8.734;2022-11-03T04:25:10;4.70;99.90
34574;DHT22;20809;49.594;8.734;2022-11-03T04:28:12;4.70;99.90
34574;DHT22;20809;49.594;8.734;2022-11-03T04:31:15;4.60;99.90
34574;DHT22;20809;49.594;8.734;2022-11-03T04:34:16;4.50;99.90
34574;DHT22;20809;49.594;8.734;2022-11-03T04:37:17;4.40;99.90
34574;DHT22;20809;49.594;8.734;2022-11-03T04:40:17;4.30;99.90
34574;DHT22;20809;49.594;8.734;2022-11-03T04:43:19;4.30;99.90
34574;DHT22;20809;49.594;8.734;2022-11-03T04:46:27;4.30;99.90
34574;DHT22;20809;49.594;8.734;2022-11-03T04:49:28;4.20;99.90
34574;DHT22;20809;49.594;8.734;2022-11-03T04:52:29;4.10;99.90
34574;DHT22;20809;49.594;8.734;2022-11-03T04:55:29;4.20;99.90
34574;DHT22;20809;49.594;8.734;2022-11-03T04:58:35;4.30;99.90
34574;DHT22;20809;49.594;8.734;2022-11-03T05:01:35;4.30;99.90
34574;DHT22;20809;49.594;8.734;2022-11-03T05:04:36;4.40;99.90
34574;DHT22;20809;49.594;8.734;2022-11-03T05:07:37;4.40;99.90
34574;DHT22;20809;49.594;8.734;2022-11-03T05:10:37;4.30;99.90
34574;DHT22;20809;49.594;8.734;2022-11-03T05:13:38;4.20;99.90
34574;DHT22;20809;49.594;8.734;2022-11-03T05:16:39;4.10;99.90
34574;DHT22;20809;49.594;8.734;2022-11-03T05:19:40;4.10;99.90
34574;DHT22;20809;49.594;8.734;2022-11-03T05:22:41;4.00;99.90
34574;DHT22;20809;49.594;8.734;2022-11-03T05:25:44;4.00;99.90
34574;DHT22;20809;49.594;8.734;2022-11-03T05:28:52;4.20;99.90
34574;DHT22;20809;49.594;8.734;2022-11-03T05:31:55;4.40;99.90
34574;DHT22;20809;49.594;8.734;2022-11-03T05:34:56;4.50;99.90
34574;DHT22;20809;49.594;8.734;2022-11-03T05:37:57;4.60;99.90
34574;DHT22;20809;49.594;8.734;2022-11-03T05:40:59;4.60;99.90
34574;DHT22;20809;49.594;8.734;2022-11-03T05:44:02;4.60;99.90
34574;DHT22;20809;49.594;8.734;2022-11-03T05:47:17;4.60;99.90
34574;DHT22;20809;49.594;8.734;2022-11-03T05:53:29;4.30;99.90
34574;DHT22;20809;49.594;8.734;2022-11-03T05:56:31;4.10;99.90
34574;DHT22;20809;49.594;8.734;2022-11-03T05:59:33;4.20;99.90
34574;DHT22;20809;49.594;8.734;2022-11-03T06:02:38;4.50;99.90
34574;DHT22;20809;49.594;8.734;2022-11-03T06:05:40;4.70;99.90
34574;DHT22;20809;49.594;8.734;2022-11-03T06:08:41;4.90;99.90
34574;DHT22;20809;49.594;8.734;2022-11-03T06:11:42;5.00;99.90
34574;DHT22;20809;49.594;8.734;2022-11-03T06:14:43;4.90;99.90
34574;DHT22;20809;49.594;8.734;2022-11-03T06:17:44;4.90;99.90
34574;DHT22;20809;49.594;8.734;2022-11-03T06:20:49;4.80;99.90
34574;DHT22;20809;49.594;8.734;2022-11-03T06:23:52;4.60;99.90
34574;DHT22;20809;49.594;8.734;2022-11-03T06:26:55;4.40;99.90
34574;DHT22;20809;49.594;8.734;2022-11-03T06:30:01;4.30;99.90
34574;DHT22;20809;49.594;8.734;2022-11-03T06:33:22;4.40;99.90
34574;DHT22;20809;49.594;8.734;2022-11-03T06:36:33;4.50;99.90
34574;DHT22;20809;49.594;8.734;2022-11-03T06:39:34;4.50;99.90
34574;DHT22;20809;49.594;8.734;2022-11-03T06:42:36;4.60;99.90
34574;DHT22;20809;49.594;8.734;2022-11-03T06:45:53;4.70;99.90
34574;DHT22;20809;49.594;8.734;2022-11-03T06:48:57;4.80;99.90
34574;DHT22;20809;49.594;8.734;2022-11-03T06:52:21;4.80;99.90
34574;DHT22;20809;49.594;8.734;2022-11-03T06:55:40;5.00;99.90
34574;DHT22;20809;49.594;8.734;2022-11-03T06:58:40;5.10;99.90
34574;DHT22;20809;49.594;8.734;2022-11-03T07:01:42;5.20;99.90
34574;DHT22;20809;49.594;8.734;2022-11-03T07:04:45;5.30;99.90
34574;DHT22;20809;49.594;8.734;2022-11-03T07:07:46;5.20;99.90
34574;DHT22;20809;49.594;8.734;2022-11-03T07:10:47;5.30;99.90
34574;DHT22;20809;49.594;8.734;2022-11-03T07:13:51;5.20;99.90
34574;DHT22;20809;49.594;8.734;2022-11-03T07:16:58;5.30;99.90
34574;DHT22;20809;49.594;8.734;2022-11-03T07:20:00;5.30;99.90
34574;DHT22;20809;49.594;8.734;2022-11-03T07:23:01;5.30;99.90
34574;DHT22;20809;49.594;8.734;2022-11-03T07:26:03;5.30;99.90
34574;DHT22;20809;49.594;8.734;2022-11-03T07:29:06;5.50;99.90
34574;DHT22;20809;49.594;8.734;2022-11-03T07:32:22;5.80;99.90
34574;DHT22;20809;49.594;8.734;2022-11-03T07:35:35;5.90;99.90
34574;DHT22;20809;49.594;8.734;2022-11-03T07:38:37;6.10;99.90
34574;DHT22;20809;49.594;8.734;2022-11-03T07:41:38;6.30;99.90
34574;DHT22;20809;49.594;8.734;2022-11-03T07:44:39;6.40;99.90
34574;DHT22;20809;49.594;8.734;2022-11-03T07:47:43;6.50;99.90
34574;DHT22;20809;49.594;8.734;2022-11-03T07:50:43;6.70;99.90
34574;DHT22;20809;49.594;8.734;2022-11-03T07:53:49;6.80;99.90
34574;DHT22;20809;49.594;8.734;2022-11-03T07:56:54;6.80;99.90
34574;DHT22;20809;49.594;8.734;2022-11-03T08:00:06;6.80;99.90
34574;DHT22;20809;49.594;8.734;2022-11-03T08:03:24;6.60;99.90
34574;DHT22;20809;49.594;8.734;2022-11-03T08:06:27;6.70;99.90
34574;DHT22;20809;49.594;8.734;2022-11-03T08:09:27;6.90;99.90
34574;DHT22;20809;49.594;8.734;2022-11-03T08:12:28;7.10;99.90
34574;DHT22;20809;49.594;8.734;2022-11-03T08:15:28;7.20;99.90
34574;DHT22;20809;49.594;8.734;2022-11-03T08:18:29;7.40;99.90
34574;DHT22;20809;49.594;8.734;2022-11-03T08:21:30;7.60;99.90
34574;DHT22;20809;49.594;8.734;2022-11-03T08:24:30;7.70;99.90
34574;DHT22;20809;49.594;8.734;2022-11-03T08:27:31;7.60;99.90
34574;DHT22;20809;49.594;8.734;2022-11-03T08:30:32;7.80;99.90
34574;DHT22;20809;49.594;8.734;2022-11-03T08:33:34;8.00;99.90
34574;DHT22;20809;49.594;8.734;2022-11-03T08:36:35;8.30;99.90
34574;DHT22;20809;49.594;8.734;2022-11-03T08:39:36;8.70;99.90
34574;DHT22;20809;49.594;8.734;2022-11-03T08:42:38;9.00;99.90
34574;DHT22;20809;49.594;8.734;2022-11-03T08:45:38;9.30;99.90
34574;DHT22;20809;49.594;8.734;2022-11-03T08:48:39;9.60;99.90
34574;DHT22;20809;49.594;8.734;2022-11-03T08:51:40;9.90;99.90
34574;DHT22;20809;49.594;8.734;2022-11-03T08:54:41;10.20;99.90
34574;DHT22;20809;49.594;8.734;2022-11-03T08:57:41;10.40;99.90
34574;DHT22;20809;49.594;8.734;2022-11-03T09:00:42;10.70;99.90
34574;DHT22;20809;49.594;8.734;2022-11-03T09:03:43;10.80;99.90
34574;DHT22;20809;49.594;8.734;2022-11-03T09:06:44;11.00;99.90
34574;DHT22;20809;49.594;8.734;2022-11-03T09:09:45;11.30;99.90
34574;DHT22;20809;49.594;8.734;2022-11-03T09:12:45;11.50;99.90
34574;DHT22;20809;49.594;8.734;2022-11-03T09:15:46;11.80;99.90
34574;DHT22;20809;49.594;8.734;2022-11-03T09:18:47;12.20;99.90
34574;DHT22;20809;49.594;8.734;2022-11-03T09:21:47;12.60;99.90
34574;DHT22;20809;49.594;8.734;2022-11-03T09:24:48;12.90;99.90
34574;DHT22;20809;49.594;8.734;2022-11-03T09:27:49;13.10;99.90
34574;DHT22;20809;49.594;8.734;2022-11-03T09:30:49;13.30;99.90
34574;DHT22;20809;49.594;8.734;2022-11-03T09:33:50;13.40;99.90
34574;DHT22;20809;49.594;8.734;2022-11-03T09:36:51;13.50;99.90
34574;DHT22;20809;49.594;8.734;2022-11-03T09:39:51;13.60;99.90
34574;DHT22;20809;49.594;8.734;2022-11-03T09:42:52;13.90;99.90
34574;DHT22;20809;49.594;8.734;2022-11-03T09:45:53;14.00;99.90
34574;DHT22;20809;49.594;8.734;2022-11-03T09:48:54;13.90;99.90
34574;DHT22;20809;49.594;8.734;2022-11-03T09:51:56;13.90;99.90
34574;DHT22;20809;49.594;8.734;2022-11-03T09:54:56;13.90;99.90
34574;DHT22;20809;49.594;8.734;2022-11-03T09:58:01;14.00;99.90
34574;DHT22;20809;49.594;8.734;2022-11-03T10:01:05;14.00;99.90
34574;DHT22;20809;49.594;8.734;2022-11-03T10:04:10;14.10;99.90
34574;DHT22;20809;49.594;8.734;2022-11-03T10:07:11;14.30;99.90
34574;DHT22;20809;49.594;8.734;2022-11-03T10:10:16;14.30;99.90
34574;DHT22;20809;49.594;8.734;2022-11-03T10:13:33;14.40;99.90
34574;DHT22;20809;49.594;8.734;2022-11-03T10:16:35;14.40;99.90
34574;DHT22;20809;49.594;8.734;2022-11-03T10:19:36;14.50;99.90
34574;DHT22;20809;49.594;8.734;2022-11-03T10:22:37;14.60;99.90
34574;DHT22;20809;49.594;8.734;2022-11-03T10:25:43;14.70;99.90
34574;DHT22;20809;49.594;8.734;2022-11-03T10:29:05;14.80;99.90
34574;DHT22;20809;49.594;8.734;2022-11-03T10:32:28;15.00;99.90
34574;DHT22;20809;49.594;8.734;2022-11-03T10:35:33;15.30;99.90
34574;DHT22;20809;49.594;8.734;2022-11-03T10:38:43;15.50;99.90
34574;DHT22;20809;49.594;8.734;2022-11-03T10:41:56;15.60;99.90
34574;DHT22;20809;49.594;8.734;2022-11-03T10:45:18;15.60;99.90
34574;DHT22;20809;49.594;8.734;2022-11-03T10:56:25;16.40;99.90
34574;DHT22;20809;49.594;8.734;2022-11-03T10:59:31;16.50;99.90
34574;DHT22;20809;49.594;8.734;2022-11-03T11:02:32;16.50;99.90
34574;DHT22;20809;49.594;8.734;2022-11-03T11:05:35;16.50;99.90
34574;DHT22;20809;49.594;8.734;2022-11-03T11:08:43;16.60;99.90
34574;DHT22;20809;49.594;8.734;2022-11-03T11:12:15;16.70;99.90
34574;DHT22;20809;49.594;8.734;2022-11-03T11:15:38;16.40;99.90
34574;DHT22;20809;49.594;8.734;2022-11-03T11:30:55;16.60;99.90
34574;DHT22;20809;49.594;8.734;2022-11-03T11:43:25;16.50;99.90
34574;DHT22;20809;49.594;8.734;2022-11-03T11:46:38;16.40;99.90
34574;DHT22;20809;49.594;8.734;2022-11-03T11:49:40;16.30;99.90
34574;DHT22;20809;49.594;8.734;2022-11-03T11:55:55;16.20;99.90
34574;DHT22;20809;49.594;8.734;2022-11-03T11:58:56;16.10;99.90
34574;DHT22;20809;49.594;8.734;2022-11-03T12:01:57;15.90;99.90
34574;DHT22;20809;49.594;8.734;2022-11-03T12:04:59;15.80;99.90
34574;DHT22;20809;49.594;8.734;2022-11-03T12:08:16;15.60;99.90
34574;DHT22;20809;49.594;8.734;2022-11-03T12:11:50;15.50;99.90
34574;DHT22;20809;49.594;8.734;2022-11-03T12:14:53;15.40;99.90
34574;DHT22;20809;49.594;8.734;2022-11-03T12:17:53;15.20;99.90
34574;DHT22;20809;49.594;8.734;2022-11-03T12:20:54;15.10;99.90
34574;DHT22;20809;49.594;8.734;2022-11-03T12:23:55;15.10;99.90
34574;DHT22;20809;49.594;8.734;2022-11-03T12:26:55;14.90;99.90
34574;DHT22;20809;49.594;8.734;2022-11-03T12:30:02;14.80;99.90
34574;DHT22;20809;49.594;8.734;2022-11-03T12:33:04;14.70;99.90
34574;DHT22;20809;49.594;8.734;2022-11-03T12:36:04;14.60;99.90
34574;DHT22;20809;49.594;8.734;2022-11-03T12:39:05;14.60;99.90
34574;DHT22;20809;49.594;8.734;2022-11-03T12:42:06;14.60;99.90
34574;DHT22;20809;49.594;8.734;2022-11-03T12:45:07;14.60;99.90
34574;DHT22;20809;49.594;8.734;2022-11-03T12:48:08;14.60;99.90
34574;DHT22;20809;49.594;8.734;2022-11-03T12:51:11;14.80;99.90
34574;DHT22;20809;49.594;8.734;2022-11-03T12:54:12;15.00;99.90
34574;DHT22;20809;49.594;8.734;2022-11-03T12:57:12;15.10;99.90
34574;DHT22;20809;49.594;8.734;2022-11-03T13:00:14;15.20;99.90
34574;DHT22;20809;49.594;8.734;2022-11-03T13:03:15;15.40;99.90
34574;DHT22;20809;49.594;8.734;2022-11-03T13:06:15;15.50;99.90
34574;DHT22;20809;49.594;8.734;2022-11-03T13:09:16;15.50;99.90
34574;DHT22;20809;49.594;8.734;2022-11-03T13:12:17;15.50;99.90
34574;DHT22;20809;49.594;8.734;2022-11-03T13:15:33;15.50;99.90
34574;DHT22;20809;49.594;8.734;2022-11-03T13:18:34;15.40;99.90
34574;DHT22;20809;49.594;8.734;2022-11-03T13:21:34;15.50;99.90
34574;DHT22;20809;49.594;8.734;2022-11-03T13:24:35;15.50;99.90
34574;DHT22;20809;49.594;8.734;2022-11-03T13:27:36;15.40;99.90
34574;DHT22;20809;49.594;8.734;2022-11-03T13:30:37;15.30;99.90
34574;DHT22;20809;49.594;8.734;2022-11-03T13:33:39;15.00;99.90
34574;DHT22;20809;49.594;8.734;2022-11-03T13:36:40;14.90;99.90
34574;DHT22;20809;49.594;8.734;2022-11-03T13:39:40;14.90;99.90
34574;DHT22;20809;49.594;8.734;2022-11-03T13:42:41;14.80;99.90
34574;DHT22;20809;49.594;8.734;2022-11-03T13:45:42;14.60;99.90
34574;DHT22;20809;49.594;8.734;2022-11-03T13:48:42;14.50;99.90
34574;DHT22;20809;49.594;8.734;2022-11-03T13:51:43;14.50;99.90
34574;DHT22;20809;49.594;8.734;2022-11-03T13:54:44;14.30;99.90
34574;DHT22;20809;49.594;8.734;2022-11-03T13:57:45;14.00;99.90
34574;DHT22;20809;49.594;8.734;2022-11-03T14:00:45;13.90;99.90
34574;DHT22;20809;49.594;8.734;2022-11-03T14:03:46;13.70;99.90
34574;DHT22;20809;49.594;8.734;2022-11-03T14:06:47;13.70;99.90
34574;DHT22;20809;49.594;8.734;2022-11-03T14:09:48;13.60;99.90
34574;DHT22;20809;49.594;8.734;2022-11-03T14:12:49;13.60;99.90
34574;DHT22;20809;49.594;8.734;2022-11-03T14:15:49;13.70;99.90
34574;DHT22;20809;49.594;8.734;2022-11-03T14:18:50;13.50;99.90
34574;DHT22;20809;49.594;8.734;2022-11-03T14:21:51;13.50;99.90
34574;DHT22;20809;49.594;8.734;2022-11-03T14:24:52;13.40;99.90
34574;DHT22;20809;49.594;8.734;2022-11-03T14:27:52;13.30;99.90
34574;DHT22;20809;49.594;8.734;2022-11-03T14:30:53;13.20;99.90
34574;DHT22;20809;49.594;8.734;2022-11-03T14:33:58;13.10;99.90
34574;DHT22;20809;49.594;8.734;2022-11-03T14:36:59;12.90;99.90
34574;DHT22;20809;49.594;8.734;2022-11-03T14:40:00;12.90;99.90
34574;DHT22;20809;49.594;8.734;2022-11-03T14:43:00;12.90;99.90
34574;DHT22;20809;49.594;8.734;2022-11-03T14:46:01;13.00;99.90
34574;DHT22;20809;49.594;8.734;2022-11-03T14:49:02;13.00;99.90
34574;DHT22;20809;49.594;8.734;2022-11-03T14:52:04;13.00;99.90
34574;DHT22;20809;49.594;8.734;2022-11-03T14:55:06;13.00;99.90
34574;DHT22;20809;49.594;8.734;2022-11-03T14:58:07;13.00;99.90
34574;DHT22;20809;49.594;8.734;2022-11-03T15:01:08;12.90;99.90
34574;DHT22;20809;49.594;8.734;2022-11-03T15:04:09;12.90;99.90
34574;DHT22;20809;49.594;8.734;2022-11-03T15:07:11;12.90;99.90
34574;DHT22;20809;49.594;8.734;2022-11-03T15:10:11;12.80;99.90
34574;DHT22;20809;49.594;8.734;2022-11-03T15:13:12;12.90;99.90
34574;DHT22;20809;49.594;8.734;2022-11-03T15:16:13;12.90;99.90
34574;DHT22;20809;49.594;8.734;2022-11-03T15:19:13;12.90;99.90
34574;DHT22;20809;49.594;8.734;2022-11-03T15:22:14;13.00;99.90
34574;DHT22;20809;49.594;8.734;2022-11-03T15:25:15;13.00;99.90
34574;DHT22;20809;49.594;8.734;2022-11-03T15:28:15;12.90;99.90
34574;DHT22;20809;49.594;8.734;2022-11-03T15:31:16;12.80;99.90
34574;DHT22;20809;49.594;8.734;2022-11-03T15:34:16;12.80;99.90
34574;DHT22;20809;49.594;8.734;2022-11-03T15:37:17;12.80;99.90
34574;DHT22;20809;49.594;8.734;2022-11-03T15:40:18;12.80;99.90
34574;DHT22;20809;49.594;8.734;2022-11-03T15:43:19;12.70;99.90
34574;DHT22;20809;49.594;8.734;2022-11-03T15:46:19;12.50;99.90
34574;DHT22;20809;49.594;8.734;2022-11-03T15:49:20;12.40;99.90
34574;DHT22;20809;49.594;8.734;2022-11-03T15:52:21;12.40;99.90
34574;DHT22;20809;49.594;8.734;2022-11-03T15:55:22;12.30;99.90
34574;DHT22;20809;49.594;8.734;2022-11-03T15:58:22;12.10;99.90
34574;DHT22;20809;49.594;8.734;2022-11-03T16:01:23;12.00;99.90
34574;DHT22;20809;49.594;8.734;2022-11-03T16:04:24;12.00;99.90
34574;DHT22;20809;49.594;8.734;2022-11-03T16:07:25;11.90;99.90
34574;DHT22;20809;49.594;8.734;2022-11-03T16:10:25;11.90;99.90
34574;DHT22;20809;49.594;8.734;2022-11-03T16:13:26;11.80;99.90
34574;DHT22;20809;49.594;8.734;2022-11-03T16:16:26;11.70;99.90
34574;DHT22;20809;49.594;8.734;2022-11-03T16:19:27;11.80;99.90
34574;DHT22;20809;49.594;8.734;2022-11-03T16:22:28;11.70;99.90
34574;DHT22;20809;49.594;8.734;2022-11-03T16:25:28;11.60;99.90
34574;DHT22;20809;49.594;8.734;2022-11-03T16:28:29;11.70;99.90
34574;DHT22;20809;49.594;8.734;2022-11-03T16:31:30;11.70;99.90
34574;DHT22;20809;49.594;8.734;2022-11-03T16:34:31;11.60;99.90
34574;DHT22;20809;49.594;8.734;2022-11-03T16:37:31;11.50;99.90
34574;DHT22;20809;49.594;8.734;2022-11-03T16:40:32;11.50;99.90
34574;DHT22;20809;49.594;8.734;2022-11-03T16:43:33;11.50;99.90
34574;DHT22;20809;49.594;8.734;2022-11-03T16:46:33;11.50;99.90
34574;DHT22;20809;49.594;8.734;2022-11-03T16:49:34;11.50;99.90
34574;DHT22;20809;49.594;8.734;2022-11-03T16:52:37;11.40;99.90
34574;DHT22;20809;49.594;8.734;2022-11-03T16:55:37;11.30;99.90
34574;DHT22;20809;49.594;8.734;2022-11-03T16:58:38;11.20;99.90
34574;DHT22;20809;49.594;8.734;2022-11-03T17:01:39;11.20;99.90
34574;DHT22;20809;49.594;8.734;2022-11-03T17:04:40;11.20;99.90
34574;DHT22;20809;49.594;8.734;2022-11-03T17:07:40;11.20;99.90
34574;DHT22;20809;49.594;8.734;2022-11-03T17:10:41;11.20;99.90
34574;DHT22;20809;49.594;8.734;2022-11-03T17:13:42;11.30;99.90
34574;DHT22;20809;49.594;8.734;2022-11-03T17:16:42;11.20;99.90
34574;DHT22;20809;49.594;8.734;2022-11-03T17:19:47;11.20;99.90
34574;DHT22;20809;49.594;8.734;2022-11-03T17:22:48;11.10;99.90
34574;DHT22;20809;49.594;8.734;2022-11-03T17:25:49;11.10;99.90
34574;DHT22;20809;49.594;8.734;2022-11-03T17:28:50;11.10;99.90
34574;DHT22;20809;49.594;8.734;2022-11-03T17:31:50;11.10;99.90
34574;DHT22;20809;49.594;8.734;2022-11-03T17:34:52;11.10;99.90
34574;DHT22;20809;49.594;8.734;2022-11-03T17:37:52;11.20;99.90
34574;DHT22;20809;49.594;8.734;2022-11-03T17:40:53;11.20;99.90
34574;DHT22;20809;49.594;8.734;2022-11-03T17:43:54;11.20;99.90
34574;DHT22;20809;49.594;8.734;2022-11-03T17:46:55;11.30;99.90
34574;DHT22;20809;49.594;8.734;2022-11-03T17:49:55;11.10;99.90
34574;DHT22;20809;49.594;8.734;2022-11-03T17:52:56;10.90;99.90
34574;DHT22;20809;49.594;8.734;2022-11-03T17:55:58;10.80;99.90
34574;DHT22;20809;49.594;8.734;2022-11-03T17:58:59;10.80;99.90
34574;DHT22;20809;49.594;8.734;2022-11-03T18:02:00;10.70;99.90
34574;DHT22;20809;49.594;8.734;2022-11-03T18:08:21;10.60;99.90
34574;DHT22;20809;49.594;8.734;2022-11-03T18:11:27;10.50;99.90
34574;DHT22;20809;49.594;8.734;2022-11-03T18:14:48;10.50;99.90
34574;DHT22;20809;49.594;8.734;2022-11-03T18:17:49;10.50;99.90
34574;DHT22;20809;49.594;8.734;2022-11-03T18:20:51;10.50;99.90
34574;DHT22;20809;49.594;8.734;2022-11-03T18:23:52;10.50;99.90
34574;DHT22;20809;49.594;8.734;2022-11-03T18:26:54;10.50;99.90
34574;DHT22;20809;49.594;8.734;2022-11-03T18:29:55;10.50;99.90
34574;DHT22;20809;49.594;8.734;2022-11-03T18:32:56;10.50;99.90
34574;DHT22;20809;49.594;8.734;2022-11-03T18:35:58;10.50;99.90
34574;DHT22;20809;49.594;8.734;2022-11-03T18:39:01;10.50;99.90
34574;DHT22;20809;49.594;8.734;2022-11-03T18:42:09;10.50;99.90
34574;DHT22;20809;49.594;8.734;2022-11-03T18:45:15;10.50;99.90
34574;DHT22;20809;49.594;8.734;2022-11-03T18:48:17;10.60;99.90
34574;DHT22;20809;49.594;8.734;2022-11-03T18:51:20;10.60;99.90
34574;DHT22;20809;49.594;8.734;2022-11-03T18:54:22;10.60;99.90
34574;DHT22;20809;49.594;8.734;2022-11-03T18:57:23;10.60;99.90
34574;DHT22;20809;49.594;8.734;2022-11-03T19:00:26;10.60;99.90
34574;DHT22;20809;49.594;8.734;2022-11-03T19:03:27;10.60;99.90
34574;DHT22;20809;49.594;8.734;2022-11-03T19:06:28;10.70;99.90
34574;DHT22;20809;49.594;8.734;2022-11-03T19:09:28;10.70;99.90
34574;DHT22;20809;49.594;8.734;2022-11-03T19:12:29;10.70;99.90
34574;DHT22;20809;49.594;8.734;2022-11-03T19:15:30;10.70;99.90
34574;DHT22;20809;49.594;8.734;2022-11-03T19:18:34;10.70;99.90
34574;DHT22;20809;49.594;8.734;2022-11-03T19:21:34;10.70;99.90
34574;DHT22;20809;49.594;8.734;2022-11-03T19:24:35;10.70;99.90
34574;DHT22;20809;49.594;8.734;2022-11-03T19:27:39;10.70;99.90
34574;DHT22;20809;49.594;8.734;2022-11-03T19:30:40;10.70;99.90
34574;DHT22;20809;49.594;8.734;2022-11-03T19:33:41;10.70;99.90
34574;DHT22;20809;49.594;8.734;2022-11-03T19:36:43;10.70;99.90
34574;DHT22;20809;49.594;8.734;2022-11-03T19:39:43;10.70;99.90
34574;DHT22;20809;49.594;8.734;2022-11-03T19:42:44;10.70;99.90
34574;DHT22;20809;49.594;8.734;2022-11-03T19:45:47;10.70;99.90
34574;DHT22;20809;49.594;8.734;2022-11-03T19:48:48;10.70;99.90
34574;DHT22;20809;49.594;8.734;2022-11-03T19:51:49;10.70;99.90
34574;DHT22;20809;49.594;8.734;2022-11-03T19:54:50;10.70;99.90
34574;DHT22;20809;49.594;8.734;2022-11-03T19:57:51;10.70;99.90
34574;DHT22;20809;49.594;8.734;2022-11-03T20:00:52;10.70;99.90
34574;DHT22;20809;49.594;8.734;2022-11-03T20:03:53;10.70;99.90
34574;DHT22;20809;49.594;8.734;2022-11-03T20:06:53;10.70;99.90
34574;DHT22;20809;49.594;8.734;2022-11-03T20:09:54;10.70;99.90
34574;DHT22;20809;49.594;8.734;2022-11-03T20:12:55;10.70;99.90
34574;DHT22;20809;49.594;8.734;2022-11-03T20:15:55;10.70;99.90
34574;DHT22;20809;49.594;8.734;2022-11-03T20:18:56;10.80;99.90